Time;durP1;ratioP1;P1;durP2;ratioP2;P2;SDS_P1;SDS_P2;PMS_P1;PMS_P2;Temp;Humidity;BMP_temperature;BMP_pressure;BME280_temperature;BME280_humidity;BME280_pressure;Samples;Min_cycle;Max_cycle;Signal;HPM_P1;HPM_P2
2023/04/21 00:02:24;;;;;;;0.10;0.10;;;;;;;;;;5034444;28;20236;-74
2023/04/21 00:04:51;;;;;;;0.10;0.10;;;;;;;;;;5046013;28;20221;-77
2023/04/21 00:07:18;;;;;;;0.10;0.10;;;;;;;;;;5034315;28;20293;-77
2023/04/21 00:09:45;;;;;;;0.10;0.10;;;;;;;;;;5045912;28;20207;-77
2023/04/21 00:12:11;;;;;;;1.33;1.33;;;;;;;;;;5034273;28;20492;-77
2023/04/21 00:14:39;;;;;;;0.10;0.10;;;;;;;;;;5045881;28;20275;-76
2023/04/21 00:17:06;;;;;;;0.10;0.10;;;;;;;;;;5034172;28;20251;-76
2023/04/21 00:19:32;;;;;;;0.10;0.10;;;;;;;;;;5045731;28;20547;-76
2023/04/21 00:22:00;;;;;;;0.10;0.10;;;;;;;;;;5034243;28;20289;-76
2023/04/21 00:24:26;;;;;;;0.10;0.10;;;;;;;;;;5045298;28;20207;-76
2023/04/21 00:26:52;;;;;;;0.10;0.10;;;;;;;;;;5034155;28;20249;-76
2023/04/21 00:29:19;;;;;;;0.10;0.10;;;;;;;;;;5045225;28;20205;-76
2023/04/21 00:31:47;;;;;;;0.10;0.10;;;;;;;;;;5034146;28;20568;-76
2023/04/21 00:34:13;;;;;;;0.50;0.50;;;;;;;;;;5045064;28;20216;-76
2023/04/21 00:36:39;;;;;;;0.10;0.10;;;;;;;;;;5034125;28;20262;-77
2023/04/21 00:39:06;;;;;;;0.10;0.10;;;;;;;;;;5044979;28;20230;-77
2023/04/21 00:41:33;;;;;;;0.10;0.10;;;;;;;;;;5034271;28;20326;-76
2023/04/21 00:44:03;;;;;;;0.10;0.10;;;;;;;;;;5045006;28;20493;-76
2023/04/21 00:46:29;;;;;;;0.10;0.10;;;;;;;;;;5033993;28;20266;-76
2023/04/21 00:48:57;;;;;;;0.30;0.30;;;;;;;;;;5044226;28;20278;-76
2023/04/21 00:51:24;;;;;;;0.10;0.10;;;;;;;;;;5033956;28;20590;-76
2023/04/21 00:53:50;;;;;;;0.10;0.10;;;;;;;;;;5044652;28;20274;-77
2023/04/21 00:56:17;;;;;;;0.10;0.10;;;;;;;;;;5033927;28;20498;-76
2023/04/21 00:58:45;;;;;;;0.10;0.10;;;;;;;;;;5044262;28;20220;-76
2023/04/21 01:01:13;;;;;;;0.10;0.10;;;;;;;;;;5034002;28;20255;-76
2023/04/21 01:03:39;;;;;;;0.10;0.10;;;;;;;;;;5044364;28;20211;-75
2023/04/21 01:06:07;;;;;;;1.13;1.13;;;;;;;;;;5033978;28;20243;-76
2023/04/21 01:08:34;;;;;;;0.10;0.10;;;;;;;;;;5044195;28;20207;-76
2023/04/21 01:11:01;;;;;;;0.10;0.10;;;;;;;;;;5033612;28;20243;-75
2023/04/21 01:13:27;;;;;;;0.10;0.10;;;;;;;;;;5043738;28;20205;-77
2023/04/21 01:15:54;;;;;;;0.10;0.10;;;;;;;;;;5033965;28;20487;-76
2023/04/21 01:18:20;;;;;;;0.10;0.10;;;;;;;;;;5043559;28;20211;-74
2023/04/21 01:20:48;;;;;;;0.10;0.10;;;;;;;;;;5033620;28;20240;-74
2023/04/21 01:23:17;;;;;;;0.10;0.10;;;;;;;;;;5043786;28;20452;-75
2023/04/21 01:25:44;;;;;;;0.10;0.10;;;;;;;;;;5033948;28;20241;-75
2023/04/21 01:28:10;;;;;;;0.10;0.10;;;;;;;;;;5043702;28;20193;-74
2023/04/21 01:30:36;;;;;;;0.10;0.10;;;;;;;;;;5033858;28;20511;-74
2023/04/21 01:33:03;;;;;;;0.10;0.10;;;;;;;;;;5043262;28;20264;-75
2023/04/21 01:35:29;;;;;;;0.10;0.10;;;;;;;;;;5033959;28;20319;-75
2023/04/21 01:37:56;;;;;;;0.10;0.10;;;;;;;;;;5043434;28;20231;-75
2023/04/21 01:40:23;;;;;;;1.80;1.80;;;;;;;;;;5033860;28;20242;-76
2023/04/21 01:42:50;;;;;;;0.10;0.10;;;;;;;;;;5043337;28;20440;-76
2023/04/21 01:45:16;;;;;;;0.10;0.10;;;;;;;;;;5033842;28;20280;-76
2023/04/21 01:47:42;;;;;;;0.10;0.10;;;;;;;;;;5043187;28;20434;-76
2023/04/21 01:50:09;;;;;;;0.10;0.10;;;;;;;;;;5034175;28;20271;-76
2023/04/21 01:52:36;;;;;;;0.10;0.10;;;;;;;;;;5042938;28;20477;-76
2023/04/21 01:55:02;;;;;;;0.10;0.10;;;;;;;;;;5044122;28;20235;-77
2023/04/21 01:57:30;;;;;;;0.10;0.10;;;;;;;;;;5032268;28;20350;-76
2023/04/21 01:59:56;;;;;;;0.10;0.10;;;;;;;;;;5043778;28;20496;-74
2023/04/21 02:02:22;;;;;;;0.10;0.10;;;;;;;;;;5032015;28;20497;-76
2023/04/21 02:04:49;;;;;;;0.10;0.10;;;;;;;;;;5043970;28;20211;-77
2023/04/21 02:07:15;;;;;;;0.10;0.10;;;;;;;;;;5032300;28;20268;-76
2023/04/21 02:09:42;;;;;;;1.50;1.43;;;;;;;;;;5043785;28;20243;-77
2023/04/21 02:12:08;;;;;;;0.10;0.10;;;;;;;;;;5032167;28;20240;-77
2023/04/21 02:14:37;;;;;;;0.10;0.10;;;;;;;;;;5043682;28;20216;-77
2023/04/21 02:17:04;;;;;;;0.10;0.10;;;;;;;;;;5032293;28;20264;-76
2023/04/21 02:19:30;;;;;;;0.10;0.10;;;;;;;;;;5043590;28;20277;-77
2023/04/21 02:21:57;;;;;;;0.10;0.10;;;;;;;;;;5032202;28;20306;-76
2023/04/21 02:24:23;;;;;;;1.90;1.03;;;;;;;;;;5043587;28;20282;-76
2023/04/21 02:26:52;;;;;;;0.20;0.20;;;;;;;;;;5032348;28;20320;-77
2023/04/21 02:29:18;;;;;;;0.10;0.10;;;;;;;;;;5043091;28;20245;-76
2023/04/21 02:31:46;;;;;;;0.10;0.10;;;;;;;;;;5032150;28;20299;-76
2023/04/21 02:34:12;;;;;;;0.10;0.10;;;;;;;;;;5043199;28;20215;-76
2023/04/21 02:36:39;;;;;;;0.10;0.10;;;;;;;;;;5032356;28;20495;-76
2023/04/21 02:39:05;;;;;;;0.10;0.10;;;;;;;;;;5043078;28;20203;-76
2023/04/21 02:41:32;;;;;;;0.10;0.10;;;;;;;;;;5032335;28;20295;-77
2023/04/21 02:43:58;;;;;;;0.10;0.10;;;;;;;;;;5043054;28;20205;-76
2023/04/21 02:46:24;;;;;;;4.47;4.27;;;;;;;;;;5032311;28;20449;-76
2023/04/21 02:48:52;;;;;;;0.10;0.10;;;;;;;;;;5043093;28;20517;-76
2023/04/21 02:51:18;;;;;;;0.10;0.10;;;;;;;;;;5032336;28;20248;-76
2023/04/21 02:53:45;;;;;;;0.17;0.17;;;;;;;;;;5042928;28;20272;-76
2023/04/21 02:56:11;;;;;;;0.10;0.10;;;;;;;;;;5032472;28;20311;-77
2023/04/21 02:58:39;;;;;;;0.10;0.10;;;;;;;;;;5042399;28;20207;-76
2023/04/21 03:01:05;;;;;;;0.10;0.10;;;;;;;;;;5032500;28;20269;-77
2023/04/21 03:03:32;;;;;;;0.10;0.10;;;;;;;;;;5042701;28;20208;-76
2023/04/21 03:06:00;;;;;;;0.10;0.10;;;;;;;;;;5032535;28;20461;-77
2023/04/21 03:08:26;;;;;;;0.10;0.10;;;;;;;;;;5042220;28;20278;-76
2023/04/21 03:10:53;;;;;;;0.10;0.10;;;;;;;;;;5032248;28;20254;-77
2023/04/21 03:13:20;;;;;;;0.10;0.10;;;;;;;;;;5045577;28;20259;-77
2023/04/21 03:15:46;;;;;;;0.10;0.10;;;;;;;;;;5036060;28;20303;-77
2023/04/21 03:18:12;;;;;;;2.90;2.80;;;;;;;;;;5045926;28;20223;-77
2023/04/21 03:20:39;;;;;;;0.20;0.20;;;;;;;;;;5036331;28;20262;-77
2023/04/21 03:23:06;;;;;;;0.20;0.20;;;;;;;;;;5046018;28;20375;-77
2023/04/21 03:25:33;;;;;;;0.10;0.10;;;;;;;;;;5036369;28;20255;-76
2023/04/21 03:28:05;;;;;;;0.10;0.10;;;;;;;;;;5045946;28;20395;-77
2023/04/21 03:30:32;;;;;;;0.10;0.10;;;;;;;;;;5036322;28;20242;-76
2023/04/21 03:32:58;;;;;;;3.83;2.63;;;;;;;;;;5045648;28;20266;-76
2023/04/21 03:35:25;;;;;;;0.33;0.33;;;;;;;;;;5036254;28;20470;-76
2023/04/21 03:37:51;;;;;;;0.10;0.10;;;;;;;;;;5045643;28;20270;-77
2023/04/21 03:40:20;;;;;;;0.20;0.20;;;;;;;;;;5036164;28;20208;-76
2023/04/21 03:42:47;;;;;;;0.10;0.10;;;;;;;;;;5045237;28;20190;-77
2023/04/21 03:45:13;;;;;;;0.10;0.10;;;;;;;;;;5036144;28;20433;-76
2023/04/21 03:47:40;;;;;;;0.10;0.10;;;;;;;;;;5045469;28;20234;-76
2023/04/21 03:50:09;;;;;;;0.10;0.10;;;;;;;;;;5046364;28;20214;-76
2023/04/21 03:52:35;;;;;;;0.10;0.10;;;;;;;;;;5018084;28;20409;-76
2023/04/21 03:55:03;;;;;;;0.10;0.10;;;;;;;;;;5046306;28;20208;-77
2023/04/21 03:57:31;;;;;;;0.10;0.10;;;;;;;;;;5034276;28;20248;-76
2023/04/21 03:59:57;;;;;;;0.10;0.10;;;;;;;;;;5046124;28;20256;-76
2023/04/21 04:02:24;;;;;;;0.80;0.80;;;;;;;;;;5034285;28;20302;-77
2023/04/21 04:04:50;;;;;;;0.10;0.10;;;;;;;;;;5045910;28;20558;-76
2023/04/21 04:07:17;;;;;;;0.10;0.10;;;;;;;;;;5034467;28;20454;-77
2023/04/21 04:09:43;;;;;;;0.10;0.10;;;;;;;;;;5046038;28;20207;-76
2023/04/21 04:12:10;;;;;;;0.10;0.10;;;;;;;;;;5034286;28;20231;-77
2023/04/21 04:14:38;;;;;;;0.10;0.10;;;;;;;;;;5045918;28;20208;-77
2023/04/21 04:17:04;;;;;;;0.10;0.10;;;;;;;;;;5034269;28;20308;-77
2023/04/21 04:19:31;;;;;;;0.10;0.10;;;;;;;;;;5045803;28;20276;-76
2023/04/21 04:21:58;;;;;;;0.10;0.10;;;;;;;;;;5034270;28;20468;-77
2023/04/21 04:24:25;;;;;;;0.10;0.10;;;;;;;;;;5044400;28;20234;-76
2023/04/21 04:26:52;;;;;;;0.10;0.10;;;;;;;;;;5034192;28;20262;-77
2023/04/21 04:29:18;;;;;;;0.10;0.10;;;;;;;;;;5045446;28;20205;-77
2023/04/21 04:31:46;;;;;;;0.10;0.10;;;;;;;;;;5034112;28;20259;-77
2023/04/21 04:34:14;;;;;;;0.10;0.10;;;;;;;;;;5045275;28;20209;-76
2023/04/21 04:36:41;;;;;;;0.10;0.10;;;;;;;;;;5034121;28;20238;-77
2023/04/21 04:39:09;;;;;;;0.10;0.10;;;;;;;;;;5044975;28;20206;-77
2023/04/21 04:41:35;;;;;;;0.10;0.10;;;;;;;;;;5034010;28;20251;-76
2023/04/21 04:44:03;;;;;;;0.10;0.10;;;;;;;;;;5044991;28;20274;-77
2023/04/21 04:46:29;;;;;;;0.10;0.10;;;;;;;;;;5033915;28;20249;-77
2023/04/21 04:48:57;;;;;;;0.17;0.17;;;;;;;;;;5044675;28;20245;-76
2023/04/21 04:51:23;;;;;;;0.10;0.10;;;;;;;;;;5033861;28;20260;-77
2023/04/21 04:53:50;;;;;;;0.17;0.17;;;;;;;;;;5044351;28;20234;-77
2023/04/21 04:56:16;;;;;;;0.10;0.10;;;;;;;;;;5033804;28;20243;-76
2023/04/21 04:58:45;;;;;;;0.10;0.10;;;;;;;;;;5044088;28;20222;-77
2023/04/21 05:01:12;;;;;;;0.10;0.10;;;;;;;;;;5034082;28;20455;-78
2023/04/21 05:03:39;;;;;;;0.10;0.10;;;;;;;;;;5044322;28;20247;-77
2023/04/21 05:06:06;;;;;;;0.10;0.10;;;;;;;;;;5033784;28;20262;-76
2023/04/21 05:08:33;;;;;;;0.10;0.10;;;;;;;;;;5043846;28;20226;-78
2023/04/21 05:10:59;;;;;;;0.10;0.10;;;;;;;;;;5033782;28;20243;-78
2023/04/21 05:13:26;;;;;;;0.10;0.10;;;;;;;;;;5043638;28;20298;-77
2023/04/21 05:15:56;;;;;;;0.10;0.10;;;;;;;;;;5033893;28;20511;-76
2023/04/21 05:18:23;;;;;;;0.10;0.10;;;;;;;;;;5043914;28;20212;-77
2023/04/21 05:20:49;;;;;;;0.10;0.10;;;;;;;;;;5033928;28;20243;-77
2023/04/21 05:23:17;;;;;;;0.30;0.30;;;;;;;;;;5043830;28;20273;-77
2023/04/21 05:25:44;;;;;;;0.10;0.10;;;;;;;;;;5034000;28;20255;-77
2023/04/21 05:28:10;;;;;;;0.10;0.10;;;;;;;;;;5043413;28;20274;-77
2023/04/21 05:30:36;;;;;;;0.10;0.10;;;;;;;;;;5034099;28;20304;-78
2023/04/21 05:33:03;;;;;;;0.10;0.10;;;;;;;;;;5043176;28;20280;-77
2023/04/21 05:35:30;;;;;;;0.10;0.10;;;;;;;;;;5033936;28;20307;-77
2023/04/21 05:37:56;;;;;;;0.10;0.10;;;;;;;;;;5043147;28;20206;-77
2023/04/21 05:40:24;;;;;;;0.10;0.10;;;;;;;;;;5033876;28;20232;-77
2023/04/21 05:42:50;;;;;;;0.10;0.10;;;;;;;;;;5043505;28;20259;-77
2023/04/21 05:45:17;;;;;;;0.10;0.10;;;;;;;;;;5033919;28;20279;-77
2023/04/21 05:47:43;;;;;;;0.10;0.10;;;;;;;;;;5043157;28;20457;-77
2023/04/21 05:50:10;;;;;;;0.17;0.17;;;;;;;;;;5033959;28;20427;-77
2023/04/21 05:52:37;;;;;;;0.10;0.10;;;;;;;;;;5042662;28;20235;-77
2023/04/21 05:55:03;;;;;;;0.20;0.20;;;;;;;;;;5044176;28;20208;-77
2023/04/21 05:57:31;;;;;;;0.10;0.10;;;;;;;;;;5032294;28;20488;-77
2023/04/21 05:59:58;;;;;;;0.10;0.10;;;;;;;;;;5044150;28;20276;-77
2023/04/21 06:02:24;;;;;;;0.10;0.10;;;;;;;;;;5032373;28;20300;-77
2023/04/21 06:04:50;;;;;;;0.10;0.10;;;;;;;;;;5044047;28;20205;-77
2023/04/21 06:07:17;;;;;;;0.10;0.10;;;;;;;;;;5032274;28;20245;-77
2023/04/21 06:09:44;;;;;;;0.10;0.10;;;;;;;;;;5043895;28;20278;-77
2023/04/21 06:12:10;;;;;;;0.10;0.10;;;;;;;;;;5032180;28;20274;-77
2023/04/21 06:14:38;;;;;;;0.10;0.10;;;;;;;;;;5043661;28;20276;-77
2023/04/21 06:17:04;;;;;;;0.10;0.10;;;;;;;;;;5032204;28;20303;-77
2023/04/21 06:19:30;;;;;;;0.10;0.10;;;;;;;;;;5043530;28;20213;-77
2023/04/21 06:21:57;;;;;;;0.10;0.10;;;;;;;;;;5032236;28;20259;-77
2023/04/21 06:24:24;;;;;;;0.10;0.10;;;;;;;;;;5043434;28;20273;-77
2023/04/21 06:26:51;;;;;;;0.30;0.30;;;;;;;;;;5032266;28;20275;-77
2023/04/21 06:29:18;;;;;;;0.10;0.10;;;;;;;;;;5043281;28;20243;-77
2023/04/21 06:31:46;;;;;;;0.10;0.10;;;;;;;;;;5032314;28;20486;-77
2023/04/21 06:34:12;;;;;;;0.10;0.10;;;;;;;;;;5043411;28;20228;-77
2023/04/21 06:36:38;;;;;;;7.47;6.80;;;;;;;;;;5032341;28;20497;-77
2023/04/21 06:39:05;;;;;;;0.10;0.10;;;;;;;;;;5043320;28;20451;-76
2023/04/21 06:41:31;;;;;;;0.10;0.10;;;;;;;;;;5032400;28;20240;-77
2023/04/21 06:43:57;;;;;;;0.10;0.10;;;;;;;;;;5042984;28;20237;-75
2023/04/21 06:46:24;;;;;;;7.70;7.20;;;;;;;;;;5032436;28;20266;-77
2023/04/21 06:48:52;;;;;;;0.10;0.10;;;;;;;;;;5047027;28;20427;-77
2023/04/21 06:51:18;;;;;;;0.10;0.10;;;;;;;;;;5036278;28;20250;-77
2023/04/21 06:53:44;;;;;;;0.10;0.10;;;;;;;;;;5046745;28;20224;-77
2023/04/21 06:56:11;;;;;;;0.10;0.10;;;;;;;;;;5036226;28;20256;-77
2023/04/21 06:58:37;;;;;;;0.10;0.10;;;;;;;;;;5046278;28;20308;-77
2023/04/21 07:01:03;;;;;;;0.10;0.10;;;;;;;;;;5036108;28;20308;-77
2023/04/21 07:03:30;;;;;;;0.10;0.10;;;;;;;;;;5046103;28;20245;-77
2023/04/21 07:05:57;;;;;;;0.10;0.10;;;;;;;;;;5036039;28;20248;-77
2023/04/21 07:08:25;;;;;;;0.10;0.10;;;;;;;;;;5046007;28;20229;-77
2023/04/21 07:10:51;;;;;;;0.10;0.10;;;;;;;;;;5036265;28;20585;-78
2023/04/21 07:13:17;;;;;;;0.10;0.10;;;;;;;;;;5045804;28;20222;-77
2023/04/21 07:15:44;;;;;;;0.10;0.10;;;;;;;;;;5036387;28;20267;-77
2023/04/21 07:18:10;;;;;;;0.10;0.10;;;;;;;;;;5045810;28;20208;-75
2023/04/21 07:20:37;;;;;;;0.10;0.10;;;;;;;;;;5036372;28;20314;-77
2023/04/21 07:23:04;;;;;;;1.07;1.07;;;;;;;;;;5045985;28;20230;-75
2023/04/21 07:25:31;;;;;;;0.10;0.10;;;;;;;;;;5036381;28;20305;-75
2023/04/21 07:27:57;;;;;;;0.10;0.10;;;;;;;;;;5045816;28;20206;-73
2023/04/21 07:30:23;;;;;;;0.10;0.10;;;;;;;;;;5036278;28;20205;-74
2023/04/21 07:32:50;;;;;;;0.10;0.10;;;;;;;;;;5045831;28;20249;-71
2023/04/21 07:35:16;;;;;;;0.10;0.10;;;;;;;;;;5036342;28;20260;-66
2023/04/21 07:37:42;;;;;;;0.10;0.10;;;;;;;;;;5045230;28;20197;-67
2023/04/21 07:40:11;;;;;;;0.10;0.10;;;;;;;;;;5036338;28;20205;-68
2023/04/21 07:42:37;;;;;;;0.10;0.10;;;;;;;;;;5045392;28;20222;-67
2023/04/21 07:45:04;;;;;;;0.10;0.10;;;;;;;;;;5046375;28;20216;-72
2023/04/21 07:47:30;;;;;;;0.10;0.10;;;;;;;;;;5035211;28;20310;-75
2023/04/21 07:49:57;;;;;;;0.10;0.10;;;;;;;;;;5046480;28;20258;-76
2023/04/21 07:52:23;;;;;;;0.10;0.10;;;;;;;;;;5034730;28;20484;-67
2023/04/21 07:54:50;;;;;;;0.10;0.10;;;;;;;;;;5046495;28;20235;-70
2023/04/21 07:57:17;;;;;;;0.10;0.10;;;;;;;;;;5034585;28;20245;-69
2023/04/21 07:59:44;;;;;;;0.00;0.00;;;;;;;;;;5045149;28;20213;-77
2023/04/21 08:02:10;;;;;;;0.10;0.10;;;;;;;;;;5034625;28;20312;-77
2023/04/21 08:04:37;;;;;;;0.10;0.10;;;;;;;;;;5045991;28;20201;-76
2023/04/21 08:07:03;;;;;;;0.10;0.10;;;;;;;;;;5034528;28;20291;-75
2023/04/21 08:09:30;;;;;;;2.13;2.03;;;;;;;;;;5045713;28;20240;-77
2023/04/21 08:11:57;;;;;;;0.17;0.17;;;;;;;;;;5034451;28;20249;-74
2023/04/21 08:14:25;;;;;;;0.10;0.10;;;;;;;;;;5045569;28;20241;-74
2023/04/21 08:16:52;;;;;;;0.10;0.10;;;;;;;;;;5034382;28;20264;-75
2023/04/21 08:19:18;;;;;;;0.10;0.10;;;;;;;;;;5045728;28;20272;-76
2023/04/21 08:21:44;;;;;;;0.10;0.10;;;;;;;;;;5034443;28;20240;-76
2023/04/21 08:24:11;;;;;;;0.10;0.10;;;;;;;;;;5045539;28;20437;-77
2023/04/21 08:26:37;;;;;;;0.73;0.73;;;;;;;;;;5034258;28;20272;-77
2023/04/21 08:29:06;;;;;;;0.00;0.00;;;;;;;;;;5045078;28;20228;-71
2023/04/21 08:31:33;;;;;;;0.10;0.10;;;;;;;;;;5034353;28;20246;-77
2023/04/21 08:34:00;;;;;;;0.10;0.10;;;;;;;;;;5044895;28;20234;-77
2023/04/21 08:36:27;;;;;;;0.10;0.10;;;;;;;;;;5034220;28;20250;-74
2023/04/21 08:38:53;;;;;;;0.10;0.10;;;;;;;;;;5044736;28;20211;-72
2023/04/21 08:41:20;;;;;;;0.10;0.10;;;;;;;;;;5034285;28;20249;-70
2023/04/21 08:43:47;;;;;;;0.10;0.10;;;;;;;;;;5044599;28;20207;-71
2023/04/21 08:46:14;;;;;;;8.40;7.73;;;;;;;;;;5034120;28;20311;-70
2023/04/21 08:48:42;;;;;;;0.00;0.00;;;;;;;;;;5044615;28;20487;-75
2023/04/21 08:51:09;;;;;;;0.00;0.00;;;;;;;;;;5033983;28;20506;-76
2023/04/21 08:53:36;;;;;;;0.03;0.03;;;;;;;;;;5044453;28;20228;-76
2023/04/21 08:56:03;;;;;;;0.10;0.10;;;;;;;;;;5034227;28;20247;-75
2023/04/21 08:58:30;;;;;;;0.00;0.00;;;;;;;;;;5043879;28;20236;-75
2023/04/21 09:00:56;;;;;;;0.00;0.00;;;;;;;;;;5034224;28;20445;-75
2023/04/21 09:03:24;;;;;;;0.00;0.00;;;;;;;;;;5043866;28;20197;-74
2023/04/21 09:05:58;;;;;;;0.00;0.00;;;;;;;;;;5034099;28;20244;-74
2023/04/21 09:08:26;;;;;;;0.00;0.00;;;;;;;;;;5044191;28;20196;-75
2023/04/21 09:10:53;;;;;;;0.00;0.00;;;;;;;;;;5033537;28;20240;-73
2023/04/21 09:13:19;;;;;;;0.00;0.00;;;;;;;;;;5043957;28;20296;-74
2023/04/21 09:15:47;;;;;;;0.00;0.00;;;;;;;;;;5033898;28;20268;-74
2023/04/21 09:18:14;;;;;;;0.00;0.00;;;;;;;;;;5043924;28;20250;-74
2023/04/21 09:20:41;;;;;;;0.00;0.00;;;;;;;;;;5034224;28;20443;-73
2023/04/21 09:23:08;;;;;;;0.00;0.00;;;;;;;;;;5043763;28;20204;-74
2023/04/21 09:25:38;;;;;;;0.00;0.00;;;;;;;;;;5034118;28;20248;-74
2023/04/21 09:28:06;;;;;;;0.00;0.00;;;;;;;;;;5043419;28;20236;-74
2023/04/21 09:30:34;;;;;;;0.00;0.00;;;;;;;;;;5033928;28;20513;-73
2023/04/21 09:33:01;;;;;;;0.63;0.63;;;;;;;;;;5043493;28;20243;-73
2023/04/21 09:35:28;;;;;;;0.00;0.00;;;;;;;;;;5034085;28;20297;-73
2023/04/21 09:37:54;;;;;;;0.00;0.00;;;;;;;;;;5043124;28;20232;-73
2023/04/21 09:40:22;;;;;;;0.00;0.00;;;;;;;;;;5033926;28;20209;-73
2023/04/21 09:42:49;;;;;;;0.03;0.03;;;;;;;;;;5043313;28;20263;-73
2023/04/21 09:45:16;;;;;;;0.00;0.00;;;;;;;;;;5033852;28;20235;-73
2023/04/21 09:47:42;;;;;;;0.00;0.00;;;;;;;;;;5042953;28;20259;-73
2023/04/21 09:50:12;;;;;;;0.00;0.00;;;;;;;;;;5037768;28;20305;-73
2023/04/21 09:52:39;;;;;;;0.00;0.00;;;;;;;;;;5042674;28;20241;-73
2023/04/21 09:55:10;;;;;;;0.00;0.00;;;;;;;;;;5043874;28;20247;-73
2023/04/21 09:57:38;;;;;;;0.00;0.00;;;;;;;;;;5015827;28;20295;-72
2023/04/21 10:00:06;;;;;;;0.00;0.00;;;;;;;;;;5044151;28;20208;-73
2023/04/21 10:02:34;;;;;;;0.00;0.00;;;;;;;;;;5032454;28;20451;-71
2023/04/21 10:05:01;;;;;;;0.00;0.00;;;;;;;;;;5043567;28;20269;-71
2023/04/21 10:07:27;;;;;;;0.00;0.00;;;;;;;;;;5032330;28;20240;-72
2023/04/21 10:09:55;;;;;;;0.00;0.00;;;;;;;;;;5043882;28;20389;-73
2023/04/21 10:12:22;;;;;;;0.00;0.00;;;;;;;;;;5032247;28;20260;-72
2023/04/21 10:14:52;;;;;;;0.00;0.00;;;;;;;;;;5043692;28;20232;-73
2023/04/21 10:17:21;;;;;;;0.00;0.00;;;;;;;;;;5032122;28;20246;-72
2023/04/21 10:19:49;;;;;;;0.00;0.00;;;;;;;;;;5043451;28;20401;-71
2023/04/21 10:22:26;;;;;;;0.00;0.00;;;;;;;;;;5031401;28;20244;-72
2023/04/21 10:24:54;;;;;;;0.00;0.00;;;;;;;;;;5043703;28;20271;-72
2023/04/21 10:27:31;;;;;;;0.00;0.00;;;;;;;;;;5032089;28;20241;-73
2023/04/21 10:29:59;;;;;;;0.20;0.20;;;;;;;;;;5043708;28;20243;-72
2023/04/21 10:32:40;;;;;;;0.00;0.00;;;;;;;;;;5031987;28;20502;-73
2023/04/21 10:35:08;;;;;;;0.55;0.55;;;;;;;;;;5043487;28;20289;-74
2023/04/21 10:37:35;;;;;;;1.10;1.10;;;;;;;;;;5015517;28;20431;-74
2023/04/21 10:40:04;;;;;;;0.00;0.00;;;;;;;;;;5043535;28;20205;-76
2023/04/21 10:42:34;;;;;;;0.60;0.60;;;;;;;;;;5031963;28;20286;-75
2023/04/21 10:45:10;;;;;;;0.00;0.00;;;;;;;;;;5043735;28;20527;-74
2023/04/21 10:47:37;;;;;;;0.00;0.00;;;;;;;;;;5015496;28;20412;-76
2023/04/21 10:50:14;;;;;;;0.00;0.00;;;;;;;;;;5043488;28;20204;-78
2023/04/21 10:52:44;;;;;;;0.00;0.00;;;;;;;;;;5036554;28;20401;-74
2023/04/21 10:55:11;;;;;;;0.00;0.00;;;;;;;;;;5032979;28;20295;-66
2023/04/21 10:57:38;;;;;;;0.00;0.00;;;;;;;;;;5042148;28;20239;-66
2023/04/21 11:00:06;;;;;;;0.00;0.00;;;;;;;;;;5043509;28;20236;-65
2023/04/21 11:02:34;;;;;;;0.00;0.00;;;;;;;;;;5031793;28;20240;-67
2023/04/21 11:05:01;;;;;;;0.00;0.00;;;;;;;;;;5043225;28;20211;-66
2023/04/21 11:07:27;;;;;;;0.00;0.00;;;;;;;;;;5031688;28;20241;-67
2023/04/21 11:09:57;;;;;;;0.00;0.00;;;;;;;;;;5043005;28;20205;-65
2023/04/21 11:12:27;;;;;;;0.00;0.00;;;;;;;;;;5031664;28;20241;-66
2023/04/21 11:14:53;;;;;;;0.00;0.00;;;;;;;;;;5043274;28;20292;-67
2023/04/21 11:17:20;;;;;;;0.00;0.00;;;;;;;;;;5031673;28;20455;-65
2023/04/21 11:19:49;;;;;;;0.00;0.00;;;;;;;;;;5043180;28;20215;-67
2023/04/21 11:22:16;;;;;;;0.00;0.00;;;;;;;;;;5031597;28;20263;-68
2023/04/21 11:24:44;;;;;;;0.00;0.00;;;;;;;;;;5042904;28;20456;-65
2023/04/21 11:27:11;;;;;;;0.00;0.00;;;;;;;;;;5031513;28;20259;-68
2023/04/21 11:29:37;;;;;;;0.00;0.00;;;;;;;;;;5043153;28;20204;-66
2023/04/21 11:32:05;;;;;;;0.00;0.00;;;;;;;;;;5031590;28;20260;-66
2023/04/21 11:34:32;;;;;;;0.00;0.00;;;;;;;;;;5046235;28;20228;-66
2023/04/21 11:36:59;;;;;;;0.00;0.00;;;;;;;;;;5035107;28;20243;-66
2023/04/21 11:39:26;;;;;;;0.00;0.00;;;;;;;;;;5046291;28;20244;-67
2023/04/21 11:41:52;;;;;;;0.00;0.00;;;;;;;;;;5035162;28;20263;-66
2023/04/21 11:44:31;;;;;;;0.00;0.00;;;;;;;;;;5046287;28;20255;-67
2023/04/21 11:46:57;;;;;;;0.00;0.00;;;;;;;;;;5034914;28;20312;-66
2023/04/21 11:49:25;;;;;;;0.00;0.00;;;;;;;;;;5046153;28;20204;-66
2023/04/21 11:51:51;;;;;;;0.00;0.00;;;;;;;;;;5034821;28;20244;-66
2023/04/21 11:54:20;;;;;;;0.00;0.00;;;;;;;;;;5046068;28;20461;-66
2023/04/21 11:56:48;;;;;;;0.00;0.00;;;;;;;;;;5034712;28;20294;-66
2023/04/21 11:59:15;;;;;;;0.00;0.00;;;;;;;;;;5045848;28;20283;-66
2023/04/21 12:01:44;;;;;;;0.00;0.00;;;;;;;;;;5034714;28;20320;-66
2023/04/21 12:04:13;;;;;;;0.00;0.00;;;;;;;;;;5045855;28;20236;-66
2023/04/21 12:06:40;;;;;;;0.00;0.00;;;;;;;;;;5034588;28;20324;-66
2023/04/21 12:09:06;;;;;;;0.00;0.00;;;;;;;;;;5045473;28;20236;-66
2023/04/21 12:11:34;;;;;;;0.00;0.00;;;;;;;;;;5034541;28;20252;-67
2023/04/21 12:14:01;;;;;;;0.00;0.00;;;;;;;;;;5045062;28;20216;-66
2023/04/21 12:16:28;;;;;;;0.00;0.00;;;;;;;;;;5034667;28;20241;-66
2023/04/21 12:18:55;;;;;;;0.00;0.00;;;;;;;;;;5045481;28;20279;-66
2023/04/21 12:21:21;;;;;;;0.00;0.00;;;;;;;;;;5034672;28;20241;-66
2023/04/21 12:23:47;;;;;;;0.00;0.00;;;;;;;;;;5045241;28;20331;-65
2023/04/21 12:26:14;;;;;;;0.00;0.00;;;;;;;;;;5034744;28;20252;-67
2023/04/21 12:28:41;;;;;;;0.00;0.00;;;;;;;;;;5045012;28;20283;-67
2023/04/21 12:31:08;;;;;;;0.00;0.00;;;;;;;;;;5034502;28;20300;-68
2023/04/21 12:33:34;;;;;;;0.00;0.00;;;;;;;;;;5045223;28;20204;-67
2023/04/21 12:36:01;;;;;;;0.00;0.00;;;;;;;;;;5035011;28;20271;-67
2023/04/21 12:38:27;;;;;;;0.00;0.00;;;;;;;;;;5045122;28;20507;-67
2023/04/21 12:40:53;;;;;;;0.00;0.00;;;;;;;;;;5034913;28;20627;-67
2023/04/21 12:43:20;;;;;;;0.00;0.00;;;;;;;;;;5044649;28;20205;-67
2023/04/21 12:45:48;;;;;;;0.00;0.00;;;;;;;;;;5034128;28;20275;-69
2023/04/21 12:48:15;;;;;;;0.00;0.00;;;;;;;;;;5044484;28;20197;-67
2023/04/21 12:50:41;;;;;;;0.00;0.00;;;;;;;;;;5034883;28;20241;-66
2023/04/21 12:53:08;;;;;;;0.00;0.00;;;;;;;;;;5044336;28;20224;-67
2023/04/21 12:55:34;;;;;;;0.00;0.00;;;;;;;;;;5034726;28;20241;-68
2023/04/21 12:58:01;;;;;;;0.00;0.00;;;;;;;;;;5043897;28;20236;-68
2023/04/21 13:00:27;;;;;;;0.00;0.00;;;;;;;;;;5035172;28;20260;-72
2023/04/21 13:02:55;;;;;;;0.00;0.00;;;;;;;;;;5044065;28;20220;-72
2023/04/21 13:05:21;;;;;;;0.08;0.08;;;;;;;;;;5034788;28;20211;-73
2023/04/21 13:07:48;;;;;;;0.10;0.10;;;;;;;;;;5044059;28;20392;-73
2023/04/21 13:10:16;;;;;;;0.00;0.00;;;;;;;;;;5034507;28;20212;-75
2023/04/21 13:12:43;;;;;;;0.00;0.00;;;;;;;;;;5043736;28;20226;-75
2023/04/21 13:15:10;;;;;;;0.00;0.00;;;;;;;;;;5034454;28;20233;-73
2023/04/21 13:17:36;;;;;;;0.00;0.00;;;;;;;;;;5043719;28;20204;-74
2023/04/21 13:20:05;;;;;;;0.00;0.00;;;;;;;;;;5044419;28;20235;-75
2023/04/21 13:22:32;;;;;;;0.00;0.00;;;;;;;;;;5016907;28;20212;-75
2023/04/21 13:24:58;;;;;;;0.00;0.00;;;;;;;;;;5044925;28;20536;-74
2023/04/21 13:27:25;;;;;;;0.00;0.00;;;;;;;;;;5033016;28;20251;-75
2023/04/21 13:29:53;;;;;;;0.00;0.00;;;;;;;;;;5044591;28;20205;-74
2023/04/21 13:32:20;;;;;;;0.00;0.00;;;;;;;;;;5032989;28;20330;-74
2023/04/21 13:34:46;;;;;;;0.00;0.00;;;;;;;;;;5043814;28;20228;-75
2023/04/21 13:37:15;;;;;;;0.00;0.00;;;;;;;;;;5032773;28;20360;-75
2023/04/21 13:39:42;;;;;;;0.00;0.00;;;;;;;;;;5044341;28;20376;-75
2023/04/21 13:42:08;;;;;;;0.00;0.00;;;;;;;;;;5032810;28;20240;-76
2023/04/21 13:44:35;;;;;;;0.00;0.00;;;;;;;;;;5044252;28;20265;-75
2023/04/21 13:47:01;;;;;;;0.00;0.00;;;;;;;;;;5032788;28;20287;-75
2023/04/21 13:49:27;;;;;;;0.00;0.00;;;;;;;;;;5044197;28;20205;-76
2023/04/21 13:51:54;;;;;;;0.00;0.00;;;;;;;;;;5032856;28;20491;-76
2023/04/21 13:54:21;;;;;;;0.00;0.00;;;;;;;;;;5044329;28;20391;-76
2023/04/21 13:56:48;;;;;;;0.00;0.00;;;;;;;;;;5032527;28;20299;-67
2023/04/21 13:59:15;;;;;;;0.00;0.00;;;;;;;;;;5043832;28;20212;-66
2023/04/21 14:01:41;;;;;;;0.00;0.00;;;;;;;;;;5033056;28;20244;-65
2023/04/21 14:04:08;;;;;;;17.70;16.25;;;;;;;;;;5043665;28;20238;-66
2023/04/21 14:06:34;;;;;;;0.00;0.00;;;;;;;;;;5032547;28;20244;-66
2023/04/21 14:09:01;;;;;;;0.00;0.00;;;;;;;;;;5043516;28;20275;-69
2023/04/21 14:11:28;;;;;;;0.00;0.00;;;;;;;;;;5032499;28;20241;-64
2023/04/21 14:13:55;;;;;;;0.00;0.00;;;;;;;;;;5043310;28;20275;-61
2023/04/21 14:16:21;;;;;;;0.00;0.00;;;;;;;;;;5032346;28;20260;-61
2023/04/21 14:18:47;;;;;;;0.00;0.00;;;;;;;;;;5042872;28;20243;-61
2023/04/21 14:21:14;;;;;;;0.00;0.00;;;;;;;;;;5032552;28;20244;-60
2023/04/21 14:23:40;;;;;;;0.00;0.00;;;;;;;;;;5042655;28;20217;-60
2023/04/21 14:26:06;;;;;;;0.00;0.00;;;;;;;;;;5032469;28;20260;-61
2023/04/21 14:28:34;;;;;;;0.10;0.10;;;;;;;;;;5042425;28;20278;-59
2023/04/21 14:31:00;;;;;;;0.00;0.00;;;;;;;;;;5032586;28;20576;-61
